x

South Hatteras - 225 South Of Cape Hatteras (41002) Wave Buoy

7:50 - Thu 23rd Oct 2014 All times are EDT. -4 hours from GMT.

  • Sig Wave height 7.2ft
  • Swell Direction
  • Peak Period 8s
  • Average Period 6s
  • Wind
    18mph, 25mph gusts
  • Sea Temp 78°f
  • Air Temp 71°f
  • Sea Pressure 1014.1mb
  • South Hatteras - 225 South Of Cape Hatteras
  • South Hatteras - 225 South Of Cape Hatteras

More Historic Weather Station data

Upgrade to MSW Pro to gain access to the past 30 days of data for over 8000 Wavebouys and Weather Stations around the globe.

Join Pro

Comparision Forecast

View Surf forecast
   
jeu. 10/23 7:50 7ft 8s 6s 18 25 mph 1014.1mb 78f 71f
6:50 7ft 8s 6s 20 25 mph 1013.6mb 78f 71f
5:50 7ft 8s 6s 18 22 mph 1013.1mb 78f 71f
4:50 7.5ft 8s 6s 20 25 mph 1012.7mb 78f 71f
3:50 8ft 8s 6s 18 22 mph 1012.7mb 78f 70f
2:50 7.5ft 7s 6s 16 20 mph 1013.5mb 78f 70f
1:50 7ft 6s 5s 20 25 mph 1013.8mb 78f 70f
12:50 6.5ft 7s 5s 22 27 mph 1013.8mb 78f 70f
mer. 10/22 11:50 6ft 7s 5s 20 27 mph 1014.1mb 78f 71f
10:50 6ft 7s 5s 18 22 mph 1014.3mb 78f 71f
9:50 7ft 7s 6s 20 25 mph 1014.2mb 78f 70f
8:50 6.5ft 6s 5s 22 27 mph 1013.9mb 78f 70f
7:50 6ft 6s 5s 20 25 mph 1013.3mb 78f 70f
6:50 6ft 7s 5s 18 25 mph 1012.8mb 78f 70f
5:50 6ft 6s 5s 22 27 mph 1012.2mb 78f 71f
4:50 6ft 6s 5s 22 29 mph 1011.8mb 79f 72f
3:50 5.5ft 6s 5s 25 31 mph 1011.3mb 79f 73f
2:50 5ft 6s 5s 25 31 mph 1011.2mb 79f 74f
1:50 4.5ft 6s 5s 22 27 mph 1011.3mb 79f 75f
12:50 5ft 6s 5s 16 20 mph 1012mb 79f 75f
11:50 5ft 6s 5s 22 27 mph 1011.9mb 79f 75f
10:50 4.5ft 5s 5s 20 22 mph 1011.9mb 79f 78f
9:50 4.5ft 6s 5s 20 22 mph 1012.2mb 79f 77f
8:50 5ft 6s 5s 20 25 mph 1012mb 79f 77f
7:50 5ft 6s 5s 20 25 mph 1011.5mb 79f 77f
6:50 5ft 5s 5s 20 25 mph 1011mb 79f 77f
5:50 4ft 10s 4s 20 25 mph 1010.7mb 79f 77f
4:50 3.5ft 10s 4s 20 22 mph 1010.4mb 79f 77f
3:50 3.5ft 9s 5s 16 22 mph 1010.7mb 79f 77f
2:50 3.5ft 9s 5s 16 20 mph 1010.9mb 80f 77f
1:50 3.5ft 10s 5s 18 20 mph 1011.3mb 80f 78f
12:50 3ft 10s 5s 16 18 mph 1012.1mb 80f 78f
mar. 10/21 11:50 3.5ft 10s 5s 16 22 mph 1012.7mb 80f 77f
10:50 3.5ft 10s 5s 13 18 mph 1012.8mb 80f 78f
9:50 3.5ft 5s 5s 11 13 mph 1012.7mb 80f 78f
8:50 3.5ft 10s 6s 11 13 mph 1012.8mb 80f 78f
7:50 3.5ft 5s 6s 11 13 mph 1012.7mb 80f 78f
6:50 3.5ft 8s 6s 9 11 mph 1012.5mb 80f 77f
5:50 3.5ft 10s 6s 11 13 mph 1012.1mb 80f 77f
4:50 3.5ft 10s 6s 9 11 mph 1012.3mb 80f 77f
3:50 3.5ft 8s 6s 9 11 mph 1012.5mb 80f 76f
2:50 3.5ft 8s 6s 9 11 mph 1012.7mb 80f 75f
1:50 3ft 8s 6s 9 13 mph 1013.3mb 80f 75f
12:50 3.5ft 8s 6s 7 9 mph 1014.6mb 80f 74f
11:50 3.5ft 8s 6s 7 9 mph 1015.2mb 80f 73f
10:50 3ft 8s 6s 11 13 mph 1015.4mb 80f 73f
9:50 3.5ft 8s 6s 11 13 mph 1015.5mb 80f 72f
8:50 3.5ft 11s 6s 16 18 mph 1015mb 80f 71f
7:50 3.5ft 8s 6s 16 18 mph 1014.8mb 80f 70f
6:50 4ft 8s 6s 11 16 mph 1015.3mb 80f 71f
5:50 4ft 8s 6s 11 16 mph 1014.9mb 80f 70f
4:50 4ft 9s 5s 18 20 mph 1015mb 80f 70f
3:50 4ft 9s 5s 16 18 mph 1014.7mb 80f 73f
2:50 4ft 8s 6s 20 25 mph 1015.5mb 80f 75f
1:50 4ft 12s 5s 18 20 mph 1016.2mb 80f 75f
12:50 4ft 8s 5s 16 20 mph 1016.9mb 80f 75f
lun. 10/20 11:50 3.5ft 12s 5s 16 18 mph 1017.4mb 80f 75f
10:50 3.5ft 9s 6s 16 18 mph 1017.9mb 80f 75f
9:50 3.5ft 8s 6s 13 18 mph 1018.2mb 80f 74f
8:50 3.5ft 9s 6s 11 13 mph 1018.2mb 80f 74f
7:50 3.5ft 8s 6s 9 13 mph 1018.1mb 80f 74f
6:50 3.5ft 8s 6s 11 13 mph 1017.8mb 80f 73f
5:50 3.5ft 9s 6s 7 11 mph 1018.2mb 80f 73f
4:50 3.5ft 8s 7s 9 13 mph 1018.2mb 80f 73f
3:50 3.5ft 8s 6s 9 13 mph 1018.5mb 80f 72f
2:50 4.5ft 9s 7s 9 13 mph 1018.6mb 80f 72f
1:50 4ft 9s 6s 7 11 mph 1019.3mb 80f 71f
12:50 4ft 8s 6s 9 13 mph 1020.2mb 80f 71f
11:50 4ft 9s 6s 9 13 mph 1021mb 80f 71f
10:50 4ft 9s 6s 9 16 mph 1021.4mb 80f 71f
9:50 4ft 10s 6s 9 11 mph 1021.8mb 80f 71f
8:50 4ft 9s 6s 9 16 mph 1021.1mb 80f 71f
7:50 4.5ft 9s 6s 9 13 mph 1020.3mb 80f 70f
6:50 4.5ft 8s 6s 9 13 mph 1019.9mb 80f 70f
5:50 4.5ft 8s 6s 9 13 mph 1019.7mb 80f 70f
4:50 5ft 6s 6s 9 13 mph 1019.5mb 80f 70f
3:50 5ft 8s 6s 9 13 mph 1019.3mb 80f 70f
2:50 5ft 7s 6s 13 18 mph 1019.3mb 80f 70f
1:50 5ft 7s 6s 9 16 mph 1019.7mb 80f 70f
dim. 10/19 11:50 5.5ft 8s 6s 13 18 mph 1019.3mb 80f 70f
10:50 6ft 8s 6s 13 18 mph 1019.3mb 80f 70f
9:50 6ft 7s 6s 13 18 mph 1019mb 80f 70f
8:50 6ft 7s 5s 16 22 mph 1018.5mb 80f 70f
7:50 6ft 7s 5s 18 20 mph 1017.9mb 80f 70f
6:50 6ft 7s 5s 18 20 mph 1017.2mb 80f 70f
5:50 6.5ft 7s 6s 18 22 mph 1016.4mb 80f 71f
4:50 7ft 7s 6s 20 25 mph 1015.8mb 80f 72f
3:50 6ft 8s 5s 20 25 mph 1015.5mb 80f 72f
2:50 7ft 7s 5s 22 27 mph 1015mb 80f 73f
1:50 6.5ft 6s 5s 20 27 mph 1015mb 80f 73f
12:50 6ft 6s 5s 22 27 mph 1015.2mb 80f 74f